createdAt,value
2018-09-05T00:04:22.470Z,20.44
2018-09-05T00:09:24.600Z,20.41
2018-09-05T00:14:26.745Z,20.25
2018-09-05T00:19:28.866Z,20.07
2018-09-05T00:24:31.031Z,20.06
2018-09-05T00:29:33.212Z,20.03
2018-09-05T00:34:35.397Z,20.03
2018-09-05T00:39:37.547Z,20.03
2018-09-05T00:44:39.660Z,20.03
2018-09-05T00:49:41.785Z,20.00
2018-09-05T00:54:43.920Z,19.90
2018-09-05T00:59:46.078Z,19.96
2018-09-05T01:04:48.395Z,20.06
2018-09-05T01:09:50.578Z,19.91
2018-09-05T01:14:53.596Z,19.83
2018-09-05T01:19:55.730Z,19.86
2018-09-05T01:24:57.854Z,19.90
2018-09-05T01:30:00.022Z,19.95
2018-09-05T01:35:02.166Z,19.92
2018-09-05T01:40:04.391Z,19.78
2018-09-05T01:45:06.553Z,19.69
2018-09-05T01:50:08.684Z,19.69
2018-09-05T01:55:10.827Z,19.82
2018-09-05T02:00:18.703Z,19.82
2018-09-05T02:05:20.847Z,19.76
2018-09-05T02:10:23.007Z,19.62
2018-09-05T02:15:25.248Z,19.55
2018-09-05T02:20:27.426Z,19.46
2018-09-05T02:25:29.570Z,19.31
2018-09-05T02:30:31.677Z,19.22
2018-09-05T02:35:33.819Z,19.19
2018-09-05T02:40:36.014Z,19.34
2018-09-05T02:45:38.134Z,19.43
2018-09-05T02:50:40.295Z,19.50
2018-09-05T02:55:48.045Z,19.53
2018-09-05T03:00:50.203Z,19.59
2018-09-05T03:05:52.530Z,19.64
2018-09-05T03:10:54.682Z,19.63
2018-09-05T03:15:56.793Z,19.62
2018-09-05T03:20:58.914Z,19.65
2018-09-05T03:26:01.091Z,19.62
2018-09-05T03:31:03.246Z,19.72
2018-09-05T03:36:05.391Z,19.88
2018-09-05T03:41:07.522Z,19.93
2018-09-05T03:46:09.641Z,20.00
2018-09-05T03:51:11.791Z,20.16
2018-09-05T03:56:13.953Z,20.07
2018-09-05T04:01:16.105Z,20.17
2018-09-05T04:06:20.715Z,20.16
2018-09-05T04:11:22.833Z,19.92
2018-09-05T04:16:24.986Z,19.79
2018-09-05T04:21:27.156Z,19.68
2018-09-05T04:26:29.272Z,19.45
2018-09-05T04:31:31.422Z,19.29
2018-09-05T04:36:33.567Z,19.28
2018-09-05T04:41:35.726Z,19.28
2018-09-05T04:46:37.881Z,19.30
2018-09-05T04:51:40.053Z,19.28
2018-09-05T04:56:42.170Z,19.25
2018-09-05T05:01:44.322Z,19.22
2018-09-05T05:06:46.528Z,19.28
2018-09-05T05:11:48.681Z,19.26
2018-09-05T05:16:51.014Z,19.29
2018-09-05T05:21:53.156Z,19.18
2018-09-05T05:26:55.338Z,19.10
2018-09-05T05:31:57.502Z,19.15
2018-09-05T05:36:59.628Z,19.41
2018-09-05T05:42:01.745Z,19.62
2018-09-05T05:47:03.880Z,19.80
2018-09-05T05:52:05.928Z,19.90
2018-09-05T05:57:08.005Z,20.07
2018-09-05T06:02:10.174Z,20.33
2018-09-05T06:07:12.309Z,20.52
2018-09-05T06:12:14.537Z,20.63
2018-09-05T06:17:16.643Z,20.76
2018-09-05T06:22:18.905Z,20.86
2018-09-05T06:27:21.058Z,20.97
2018-09-05T06:32:23.215Z,21.05
2018-09-05T06:37:25.301Z,21.12
2018-09-05T06:42:27.438Z,21.20
2018-09-05T06:47:29.576Z,21.25
2018-09-05T06:52:31.707Z,21.31
2018-09-05T06:57:34.232Z,21.34
2018-09-05T07:02:36.434Z,21.35
2018-09-05T07:07:38.581Z,21.35
2018-09-05T07:12:40.772Z,21.38
2018-09-05T07:17:42.906Z,21.42
2018-09-05T07:22:45.018Z,21.43
2018-09-05T07:27:47.140Z,21.44
2018-09-05T07:32:49.301Z,21.53
2018-09-05T07:37:51.432Z,21.71
2018-09-05T07:42:53.602Z,21.78
2018-09-05T07:47:55.766Z,21.75
2018-09-05T07:52:58.169Z,21.87
2018-09-05T07:58:00.433Z,21.98
2018-09-05T08:03:02.972Z,21.96
2018-09-05T08:08:05.128Z,21.88
2018-09-05T08:13:07.295Z,21.97
2018-09-05T08:18:09.499Z,22.17
2018-09-05T08:23:11.645Z,22.36
2018-09-05T08:28:13.752Z,22.62
2018-09-05T08:33:15.931Z,22.65
2018-09-05T08:38:18.123Z,22.78
2018-09-05T08:43:20.317Z,22.54
2018-09-05T08:48:22.542Z,22.64
2018-09-05T08:53:24.580Z,22.83
2018-09-05T08:58:26.755Z,22.93
2018-09-05T09:03:29.067Z,22.89
2018-09-05T09:08:31.196Z,22.71
2018-09-05T09:13:33.337Z,22.73
2018-09-05T09:18:35.511Z,22.84
2018-09-05T09:23:37.910Z,22.88
2018-09-05T09:28:40.053Z,22.90
2018-09-05T09:33:42.227Z,22.98
2018-09-05T09:38:44.356Z,23.27
2018-09-05T09:43:46.503Z,23.53
2018-09-05T09:48:48.663Z,23.69
2018-09-05T09:53:51.724Z,23.69
2018-09-05T09:58:53.955Z,23.57
2018-09-05T10:04:01.755Z,23.56
2018-09-05T10:09:12.441Z,23.56
2018-09-05T10:14:20.361Z,23.69
2018-09-05T10:19:22.526Z,23.82
2018-09-05T10:24:24.666Z,23.75
2018-09-05T10:29:26.842Z,23.51
2018-09-05T10:34:28.991Z,23.55
2018-09-05T10:39:31.145Z,23.69
2018-09-05T10:44:33.294Z,23.90
2018-09-05T10:49:35.422Z,23.97
2018-09-05T10:54:37.586Z,23.86
2018-09-05T10:59:39.717Z,23.94
2018-09-05T11:04:41.886Z,23.89
2018-09-05T11:09:44.012Z,23.93
2018-09-05T11:14:46.158Z,24.26
2018-09-05T11:19:48.262Z,24.26
2018-09-05T11:24:50.407Z,23.96
2018-09-05T11:29:52.537Z,23.83
2018-09-05T11:34:54.702Z,24.27
2018-09-05T11:39:56.854Z,24.37
2018-09-05T11:44:59.067Z,24.10
2018-09-05T11:50:01.197Z,24.07
2018-09-05T11:55:03.440Z,24.74
2018-09-05T12:00:49.727Z,24.70
2018-09-05T12:05:51.922Z,25.38
2018-09-05T12:10:54.076Z,25.20
2018-09-05T12:15:56.196Z,25.25
2018-09-05T12:20:58.322Z,25.55
2018-09-05T12:26:00.485Z,26.16
2018-09-05T12:31:02.637Z,26.23
2018-09-05T12:36:04.817Z,26.44
2018-09-05T12:41:06.939Z,25.85
2018-09-05T12:46:09.350Z,26.76
2018-09-05T12:51:11.527Z,26.54
2018-09-05T12:56:13.658Z,26.55
2018-09-05T13:01:15.842Z,27.21
2018-09-05T13:06:17.994Z,27.34
2018-09-05T13:11:20.326Z,26.73
2018-09-05T13:16:22.482Z,26.16
2018-09-05T13:21:24.664Z,27.23
2018-09-05T13:26:26.822Z,28.38
2018-09-05T13:31:28.926Z,29.11
2018-09-05T13:36:31.156Z,29.77
2018-09-05T13:41:33.357Z,30.36
2018-09-05T13:46:35.700Z,30.14
2018-09-05T13:51:38.109Z,30.35
2018-09-05T13:56:40.303Z,30.61
2018-09-05T14:01:42.483Z,30.72
2018-09-05T14:06:44.655Z,30.51
2018-09-05T14:11:46.875Z,29.65
2018-09-05T14:16:48.999Z,29.41
2018-09-05T14:21:51.212Z,30.08
2018-09-05T14:26:53.396Z,30.90
2018-09-05T14:31:55.594Z,31.40
2018-09-05T14:36:57.822Z,31.01
2018-09-05T14:42:00.002Z,29.95
2018-09-05T14:47:02.209Z,30.39
2018-09-05T14:52:04.383Z,30.86
2018-09-05T14:57:06.632Z,31.14
2018-09-05T15:02:08.825Z,30.16
2018-09-05T15:07:11.074Z,30.26
2018-09-05T15:12:13.256Z,30.85
2018-09-05T15:17:15.490Z,31.13
2018-09-05T15:22:17.687Z,29.94
2018-09-05T15:27:19.855Z,29.46
2018-09-05T15:32:22.107Z,30.10
2018-09-05T15:37:24.256Z,30.31
2018-09-05T15:42:26.594Z,30.43
2018-09-05T15:47:28.735Z,29.61
2018-09-05T15:52:30.896Z,29.55
2018-09-05T15:57:33.130Z,29.31
2018-09-05T16:02:35.240Z,28.97
2018-09-05T16:07:37.436Z,28.85
2018-09-05T16:12:39.591Z,28.76
2018-09-05T16:17:41.755Z,28.56
2018-09-05T16:22:43.905Z,28.23
2018-09-05T16:27:46.088Z,27.78
2018-09-05T16:32:48.241Z,27.16
2018-09-05T16:37:50.430Z,26.57
2018-09-05T16:42:52.656Z,26.04
2018-09-05T16:47:54.901Z,25.76
2018-09-05T16:52:57.096Z,25.44
2018-09-05T16:57:59.273Z,25.22
2018-09-05T17:03:01.459Z,25.01
2018-09-05T17:08:03.957Z,24.80
2018-09-05T17:13:06.169Z,24.62
2018-09-05T17:18:08.394Z,24.50
2018-09-05T17:23:10.581Z,24.36
2018-09-05T17:28:12.772Z,24.24
2018-09-05T17:33:15.477Z,24.10
2018-09-05T17:38:17.951Z,23.99
2018-09-05T17:43:20.094Z,23.91
2018-09-05T17:48:22.316Z,23.78
2018-09-05T17:53:24.536Z,23.62
2018-09-05T17:58:26.743Z,23.54
2018-09-05T18:03:29.002Z,23.50
2018-09-05T18:08:31.260Z,23.38
2018-09-05T18:13:33.463Z,23.38
2018-09-05T18:18:35.723Z,23.39
2018-09-05T18:23:37.914Z,23.43
2018-09-05T18:28:40.100Z,23.38
2018-09-05T18:33:42.369Z,23.41
2018-09-05T18:38:44.507Z,23.40
2018-09-05T18:43:46.759Z,23.35
2018-09-05T18:48:48.966Z,23.31
2018-09-05T18:53:51.176Z,23.29
2018-09-05T18:58:55.159Z,23.29
2018-09-05T19:03:57.368Z,23.27
2018-09-05T19:08:59.610Z,23.24
2018-09-05T19:14:02.372Z,23.24
2018-09-05T19:19:04.715Z,23.19
2018-09-05T19:24:06.927Z,23.18
2018-09-05T19:29:09.132Z,23.13
2018-09-05T19:34:11.385Z,23.12
2018-09-05T19:39:13.629Z,23.08
2018-09-05T19:44:15.841Z,23.05
2018-09-05T19:49:18.094Z,23.02
2018-09-05T19:54:20.415Z,23.00
2018-09-05T19:59:22.704Z,22.97
2018-09-05T20:04:25.171Z,22.95
2018-09-05T20:09:27.504Z,22.94
2018-09-05T20:14:29.951Z,22.92
2018-09-05T20:19:32.167Z,22.88
2018-09-05T20:24:34.348Z,22.88
2018-09-05T20:29:36.586Z,22.72
2018-09-05T20:34:38.796Z,22.51
2018-09-05T20:39:41.257Z,22.39
2018-09-05T20:44:43.460Z,22.34
2018-09-05T20:49:45.662Z,22.22
2018-09-05T20:54:47.791Z,22.18
2018-09-05T20:59:49.960Z,22.15
2018-09-05T21:04:52.105Z,22.11
2018-09-05T21:09:54.289Z,22.07
2018-09-05T21:14:56.440Z,22.05
2018-09-05T21:19:58.587Z,22.04
2018-09-05T21:25:00.718Z,22.05
2018-09-05T21:30:02.910Z,22.02
2018-09-05T21:35:05.050Z,22.04
2018-09-05T21:40:07.257Z,21.81
2018-09-05T21:45:09.437Z,21.69
2018-09-05T21:50:11.619Z,21.48
2018-09-05T21:55:13.825Z,21.29
2018-09-05T22:00:15.954Z,21.13
2018-09-05T22:05:18.105Z,20.99
2018-09-05T22:10:20.527Z,20.88
2018-09-05T22:15:23.255Z,20.81
2018-09-05T22:20:25.400Z,20.76
2018-09-05T22:25:27.537Z,20.71
2018-09-05T22:30:30.486Z,20.65
2018-09-05T22:35:32.640Z,20.65
2018-09-05T22:40:40.431Z,20.59
2018-09-05T22:45:53.926Z,20.56
2018-09-05T22:52:10.449Z,20.48
2018-09-05T23:01:27.289Z,20.39
2018-09-05T23:06:42.612Z,20.31
2018-09-05T23:11:56.403Z,20.27
2018-09-05T23:19:18.568Z,20.20
2018-09-05T23:24:20.717Z,20.15
2018-09-05T23:29:23.343Z,20.12
2018-09-05T23:34:25.511Z,20.08
2018-09-05T23:39:27.621Z,20.03
2018-09-05T23:44:30.016Z,20.02
2018-09-05T23:49:32.124Z,20.02
2018-09-05T23:54:34.343Z,20.00
2018-09-05T23:59:36.588Z,19.97
